< < Back
Terminal Aerodrome Forecast


Current Version              Previous Versions:   1  2  3  4  5  6  7  8  9  

Terminal Aerodrome Forecast

236
FTUS42 KMLB 012301 AAA
TAFDAB
TAF AMD
KDAB 012301Z 0123/0218 21005KT 1 1/2SM +RA VCSH FEW025 BKN030
      BKN045
     FM020000 15004KT P6SM VCSH FEW040 BKN060 BKN250
     FM020300 VRB03KT P6SM SCT250
     FM021300 21005KT P6SM FEW025 SCT250=

Latest METAR

642
SAUS80 KWBC 021700
MTRDAB
METAR KDAB 021653Z 24007KT 10SM SCT035TCU SCT055 SCT250 32/23 A3007 RMK
AO2 SLP181 TCU OHD SW-NW T03220233


USA.gov is the U.S. government's official web portal to all federal, state and local government web resources and services.